createdAt,value
2018-04-07T00:00:01.341Z,98.40
2018-04-07T00:02:28.242Z,98.40
2018-04-07T00:04:55.172Z,98.50
2018-04-07T00:07:22.041Z,98.50
2018-04-07T00:09:49.729Z,98.30
2018-04-07T00:12:16.632Z,98.30
2018-04-07T00:14:43.587Z,97.90
2018-04-07T00:17:10.544Z,97.80
2018-04-07T00:19:38.247Z,97.70
2018-04-07T00:22:05.121Z,97.70
2018-04-07T00:24:32.000Z,97.60
2018-04-07T00:26:59.685Z,97.60
2018-04-07T00:29:26.559Z,97.60
2018-04-07T00:31:53.506Z,97.70
2018-04-07T00:34:20.449Z,97.90
2018-04-07T00:36:47.359Z,98.00
2018-04-07T00:39:14.311Z,98.20
2018-04-07T00:41:41.249Z,98.20
2018-04-07T00:44:08.945Z,98.30
2018-04-07T00:46:35.827Z,98.30
2018-04-07T00:49:02.783Z,98.50
2018-04-07T00:51:29.660Z,98.70
2018-04-07T00:53:56.608Z,98.80
2018-04-07T00:56:23.490Z,98.90
2018-04-07T00:58:50.352Z,98.80
2018-04-07T01:01:17.294Z,98.80
2018-04-07T01:03:44.278Z,98.90
2018-04-07T01:06:11.275Z,99.00
2018-04-07T01:08:38.235Z,98.80
2018-04-07T01:11:05.173Z,98.60
2018-04-07T01:13:32.134Z,98.50
2018-04-07T01:15:59.848Z,98.60
2018-04-07T01:18:26.796Z,98.60
2018-04-07T01:20:53.670Z,98.80
2018-04-07T01:23:20.599Z,99.00
2018-04-07T01:25:47.544Z,99.20
2018-04-07T01:28:14.408Z,99.40
2018-04-07T01:30:41.356Z,99.60
2018-04-07T01:33:08.293Z,99.50
2018-04-07T01:35:35.179Z,99.40
2018-04-07T01:38:02.113Z,99.20
2018-04-07T01:40:29.089Z,99.10
2018-04-07T01:42:55.967Z,99.00
2018-04-07T01:45:22.851Z,98.80
2018-04-07T01:47:49.816Z,98.80
2018-04-07T01:50:17.495Z,98.60
2018-04-07T01:52:44.358Z,98.60
2018-04-07T01:55:11.340Z,98.50
2018-04-07T01:57:38.206Z,98.70
2018-04-07T02:00:05.963Z,98.70
2018-04-07T02:02:32.838Z,98.80
2018-04-07T02:04:59.781Z,98.90
2018-04-07T02:07:26.647Z,98.80
2018-04-07T02:09:53.641Z,98.60
2018-04-07T02:12:20.563Z,98.50
2018-04-07T02:14:47.443Z,98.40
2018-04-07T02:17:15.123Z,98.90
2018-04-07T02:19:42.817Z,98.90
2018-04-07T02:22:09.681Z,98.90
2018-04-07T02:24:36.574Z,98.90
2018-04-07T02:27:03.502Z,99.00
2018-04-07T02:29:30.454Z,99.10
2018-04-07T02:31:58.130Z,99.60
2018-04-07T02:34:25.009Z,99.60
2018-04-07T02:36:51.968Z,99.80
2018-04-07T02:39:18.899Z,99.90
2018-04-07T02:41:45.823Z,99.90
2018-04-07T02:44:12.773Z,99.90
2018-04-07T02:46:39.624Z,99.90
2018-04-07T02:49:06.566Z,99.90
2018-04-07T02:51:33.439Z,99.90
2018-04-07T02:54:00.370Z,99.90
2018-04-07T02:56:27.303Z,99.90
2018-04-07T02:58:54.340Z,99.90
2018-04-07T03:01:21.276Z,99.90
2018-04-07T03:03:48.947Z,99.90
2018-04-07T03:06:16.551Z,99.90
2018-04-07T03:08:43.467Z,99.90
2018-04-07T03:11:10.331Z,99.90
2018-04-07T03:13:37.262Z,99.90
2018-04-07T03:16:04.139Z,99.90
2018-04-07T03:18:30.987Z,99.80
2018-04-07T03:20:57.981Z,99.90
2018-04-07T03:23:24.907Z,99.90
2018-04-07T03:25:51.849Z,99.90
2018-04-07T03:28:18.714Z,99.90
2018-04-07T03:30:46.362Z,99.30
2018-04-07T03:33:14.040Z,99.60
2018-04-07T03:35:41.643Z,99.50
2018-04-07T03:38:08.579Z,99.50
2018-04-07T03:40:35.440Z,99.50
2018-04-07T03:43:02.428Z,99.30
2018-04-07T03:45:30.034Z,99.10
2018-04-07T03:47:57.067Z,99.10
2018-04-07T03:50:24.004Z,99.00
2018-04-07T03:52:51.664Z,99.10
2018-04-07T03:55:19.266Z,99.00
2018-04-07T03:57:46.186Z,99.00
2018-04-07T04:00:13.121Z,99.00
2018-04-07T04:02:40.009Z,98.80
2018-04-07T04:05:07.009Z,98.80
2018-04-07T04:07:34.679Z,99.00
2018-04-07T04:10:01.634Z,99.00
2018-04-07T04:12:28.580Z,99.00
2018-04-07T04:14:55.512Z,99.40
2018-04-07T04:17:22.511Z,99.50
2018-04-07T04:19:49.478Z,99.60
2018-04-07T04:22:16.412Z,99.60
2018-04-07T04:24:43.362Z,99.50
2018-04-07T04:27:24.391Z,99.50
2018-04-07T04:29:52.044Z,99.60
2018-04-07T04:32:18.903Z,99.40
2018-04-07T04:34:45.796Z,99.50
2018-04-07T04:37:12.737Z,99.40
2018-04-07T04:39:39.612Z,99.40
2018-04-07T04:42:07.269Z,99.40
2018-04-07T04:44:34.956Z,99.40
2018-04-07T04:47:01.884Z,99.40
2018-04-07T04:49:29.575Z,99.20
2018-04-07T04:51:56.596Z,99.20
2018-04-07T04:54:24.205Z,99.20
2018-04-07T04:56:51.110Z,99.20
2018-04-07T04:59:18.767Z,98.90
2018-04-07T05:01:46.434Z,99.30
2018-04-07T05:04:14.031Z,99.20
2018-04-07T05:06:40.998Z,99.20
2018-04-07T05:09:08.036Z,98.90
2018-04-07T05:11:34.959Z,99.00
2018-04-07T05:14:01.952Z,99.00
2018-04-07T05:16:28.885Z,99.00
2018-04-07T05:18:55.814Z,99.00
2018-04-07T05:21:22.741Z,99.30
2018-04-07T05:23:49.600Z,99.50
2018-04-07T05:26:16.506Z,98.70
2018-04-07T05:28:43.427Z,98.50
2018-04-07T05:31:10.373Z,98.20
2018-04-07T05:33:37.227Z,98.00
2018-04-07T05:36:04.843Z,97.80
2018-04-07T05:38:31.795Z,97.80
2018-04-07T05:40:58.739Z,97.80
2018-04-07T05:43:25.594Z,96.90
2018-04-07T05:45:52.467Z,96.50
2018-04-07T05:48:20.160Z,96.80
2018-04-07T05:50:47.100Z,96.80
2018-04-07T05:53:13.948Z,96.80
2018-04-07T05:55:40.870Z,96.00
2018-04-07T05:58:07.844Z,95.10
2018-04-07T06:00:34.718Z,94.70
2018-04-07T06:03:01.756Z,94.00
2018-04-07T06:05:28.627Z,93.70
2018-04-07T06:07:55.608Z,94.10
2018-04-07T06:10:23.215Z,93.80
2018-04-07T06:12:50.158Z,93.80
2018-04-07T06:15:17.050Z,93.40
2018-04-07T06:17:43.983Z,94.10
2018-04-07T06:20:10.839Z,94.50
2018-04-07T06:22:37.758Z,94.30
2018-04-07T06:25:04.688Z,95.40
2018-04-07T06:27:31.532Z,96.00
2018-04-07T06:29:58.456Z,96.50
2018-04-07T06:32:25.350Z,96.70
2018-04-07T06:34:52.308Z,95.30
2018-04-07T06:37:19.224Z,92.90
2018-04-07T06:39:46.105Z,91.70
2018-04-07T06:42:15.577Z,90.10
2018-04-07T06:44:53.050Z,88.30
2018-04-07T06:47:20.274Z,84.60
2018-04-07T06:49:50.860Z,69.60
2018-04-07T06:52:24.530Z,69.60
2018-04-07T06:54:51.393Z,65.20
2018-04-07T06:57:18.326Z,64.60
2018-04-07T06:59:45.460Z,64.80
2018-04-07T07:02:12.534Z,67.80
2018-04-07T07:04:39.476Z,68.90
2018-04-07T07:07:10.287Z,67.80
2018-04-07T07:09:37.894Z,62.30
2018-04-07T07:12:05.203Z,62.40
2018-04-07T07:14:35.727Z,59.90
2018-04-07T07:17:03.470Z,57.30
2018-04-07T07:19:35.754Z,57.20
2018-04-07T07:22:10.099Z,53.20
2018-04-07T07:24:39.435Z,49.30
2018-04-07T07:27:07.229Z,50.90
2018-04-07T07:29:42.357Z,49.30
2018-04-07T07:32:09.294Z,49.40
2018-04-07T07:34:47.903Z,46.80
2018-04-07T07:37:29.477Z,48.20
2018-04-07T07:40:09.650Z,47.30
2018-04-07T07:42:36.945Z,49.80
2018-04-07T07:45:04.630Z,50.70
2018-04-07T07:47:32.304Z,51.00
2018-04-07T07:50:01.646Z,51.00
2018-04-07T07:52:29.823Z,48.90
2018-04-07T07:55:01.467Z,51.00
2018-04-07T07:57:28.322Z,48.20
2018-04-07T07:59:55.652Z,49.60
2018-04-07T08:02:22.545Z,47.60
2018-04-07T08:04:57.512Z,44.90
2018-04-07T08:07:25.006Z,44.50
2018-04-07T08:09:53.598Z,43.70
2018-04-07T08:12:23.154Z,44.40
2018-04-07T08:14:50.555Z,46.20
2018-04-07T08:17:27.952Z,44.60
2018-04-07T08:19:59.490Z,41.10
2018-04-07T08:22:31.986Z,40.50
2018-04-07T08:24:59.802Z,38.70
2018-04-07T08:27:36.240Z,36.80
2018-04-07T08:30:04.100Z,36.40
2018-04-07T08:32:37.449Z,38.10
2018-04-07T08:35:11.626Z,39.50
2018-04-07T08:37:39.014Z,37.00
2018-04-07T08:40:05.930Z,37.20
2018-04-07T08:42:32.838Z,36.40
2018-04-07T08:45:06.407Z,34.20
2018-04-07T08:47:34.067Z,35.40
2018-04-07T08:50:00.918Z,35.40
2018-04-07T08:52:34.238Z,36.30
2018-04-07T08:55:01.846Z,34.70
2018-04-07T08:57:29.947Z,35.20
2018-04-07T08:59:56.866Z,35.80
2018-04-07T09:02:23.727Z,34.30
2018-04-07T09:05:00.126Z,33.70
2018-04-07T09:07:29.936Z,34.50
2018-04-07T09:10:01.248Z,35.50
2018-04-07T09:12:28.931Z,34.90
2018-04-07T09:14:55.803Z,34.80
2018-04-07T09:17:23.207Z,34.90
2018-04-07T09:19:50.839Z,36.60
2018-04-07T09:22:19.251Z,36.50
2018-04-07T09:24:52.409Z,36.80
2018-04-07T09:27:19.383Z,36.80
2018-04-07T09:29:46.323Z,38.20
2018-04-07T09:32:18.066Z,37.30
2018-04-07T09:34:45.026Z,37.10
2018-04-07T09:37:11.974Z,38.10
2018-04-07T09:39:38.910Z,36.30
2018-04-07T09:42:08.612Z,37.80
2018-04-07T09:44:40.580Z,36.30
2018-04-07T09:47:07.436Z,38.10
2018-04-07T09:49:34.437Z,40.20
2018-04-07T09:52:01.292Z,40.20
2018-04-07T09:54:28.270Z,42.20
2018-04-07T09:56:55.128Z,43.50
2018-04-07T09:59:22.005Z,44.00
2018-04-07T10:01:49.009Z,44.50
2018-04-07T10:04:15.955Z,44.50
2018-04-07T10:06:42.915Z,43.80
2018-04-07T10:09:09.864Z,42.20
2018-04-07T10:11:36.899Z,44.00
2018-04-07T10:14:05.015Z,43.40
2018-04-07T10:16:34.598Z,45.10
2018-04-07T10:19:01.562Z,45.90
2018-04-07T10:21:29.227Z,48.20
2018-04-07T10:24:00.917Z,46.60
2018-04-07T10:29:18.297Z,46.10
2018-04-07T10:31:48.984Z,47.00
2018-04-07T10:34:23.942Z,46.00
2018-04-07T10:37:01.907Z,47.60
2018-04-07T10:39:31.577Z,46.80
2018-04-07T10:42:01.623Z,47.50
2018-04-07T10:47:17.900Z,46.80
2018-04-07T10:52:35.634Z,47.80
2018-04-07T10:55:09.532Z,48.40
2018-04-07T10:57:39.147Z,47.10
2018-04-07T11:00:15.664Z,47.50
2018-04-07T11:02:45.018Z,48.20
2018-04-07T11:05:13.099Z,47.90
2018-04-07T11:07:51.657Z,48.50
2018-04-07T11:10:28.532Z,49.30
2018-04-07T11:12:55.739Z,48.40
2018-04-07T11:15:24.665Z,50.30
2018-04-07T11:17:51.548Z,49.60
2018-04-07T11:20:19.223Z,48.00
2018-04-07T11:22:46.103Z,47.90
2018-04-07T11:25:13.078Z,48.00
2018-04-07T11:27:40.035Z,49.30
2018-04-07T11:30:19.688Z,47.70
2018-04-07T11:32:47.983Z,47.60
2018-04-07T11:35:16.034Z,48.30
2018-04-07T11:37:44.434Z,49.50
2018-04-07T11:40:11.731Z,49.50
2018-04-07T11:42:38.976Z,48.50
2018-04-07T11:45:06.268Z,48.90
2018-04-07T11:47:34.870Z,49.50
2018-04-07T11:50:02.620Z,49.10
2018-04-07T11:52:29.475Z,49.10
2018-04-07T11:54:59.271Z,47.90
2018-04-07T11:57:27.286Z,48.50
2018-04-07T11:59:54.448Z,48.50
2018-04-07T12:02:21.434Z,48.20
2018-04-07T12:04:48.286Z,49.10
2018-04-07T12:09:51.925Z,48.20
2018-04-07T12:12:19.596Z,52.90
2018-04-07T12:14:47.450Z,51.50
2018-04-07T12:17:15.769Z,50.00
2018-04-07T12:19:42.970Z,49.90
2018-04-07T12:22:10.958Z,49.90
2018-04-07T12:24:38.623Z,49.00
2018-04-07T12:27:05.719Z,49.00
2018-04-07T12:29:32.807Z,50.10
2018-04-07T12:32:00.414Z,48.00
2018-04-07T12:34:28.253Z,47.90
2018-04-07T12:36:55.202Z,49.80
2018-04-07T12:39:22.330Z,49.20
2018-04-07T12:41:49.339Z,48.30
2018-04-07T12:44:17.175Z,49.60
2018-04-07T12:46:44.110Z,49.40
2018-04-07T12:49:11.850Z,48.20
2018-04-07T12:51:38.732Z,48.20
2018-04-07T12:54:05.665Z,47.50
2018-04-07T12:56:33.268Z,47.50
2018-04-07T12:59:00.279Z,47.40
2018-04-07T13:01:27.970Z,48.10
2018-04-07T13:03:54.981Z,48.20
2018-04-07T13:06:21.855Z,48.40
2018-04-07T13:08:48.799Z,49.00
2018-04-07T13:11:15.693Z,48.00
2018-04-07T13:13:42.736Z,46.50
2018-04-07T13:16:09.944Z,49.00
2018-04-07T13:18:37.056Z,47.40
2018-04-07T13:21:04.160Z,48.10
2018-04-07T13:23:31.257Z,47.00
2018-04-07T13:25:58.240Z,47.90
2018-04-07T13:28:25.176Z,48.90
2018-04-07T13:30:52.143Z,48.50
2018-04-07T13:33:19.179Z,48.40
2018-04-07T13:35:46.083Z,47.30
2018-04-07T13:38:13.055Z,47.40
2018-04-07T13:40:39.991Z,49.10
2018-04-07T13:43:07.031Z,47.10
2018-04-07T13:45:34.299Z,47.80
2018-04-07T13:48:01.347Z,47.00
2018-04-07T13:50:28.412Z,48.50
2018-04-07T13:52:55.496Z,46.60
2018-04-07T13:55:22.803Z,46.30
2018-04-07T13:57:49.716Z,47.70
2018-04-07T14:00:16.728Z,46.60
2018-04-07T14:02:44.355Z,48.90
2018-04-07T14:05:11.473Z,48.90
2018-04-07T14:07:38.349Z,45.00
2018-04-07T14:10:05.394Z,46.00
2018-04-07T14:12:32.570Z,47.30
2018-04-07T14:14:59.675Z,46.20
2018-04-07T14:17:26.723Z,46.70
2018-04-07T14:19:53.596Z,46.40
2018-04-07T14:22:21.496Z,46.00
2018-04-07T14:24:48.382Z,45.90
2018-04-07T14:27:15.324Z,46.20
2018-04-07T14:29:42.184Z,45.30
2018-04-07T14:32:10.060Z,46.90
2018-04-07T14:34:37.772Z,45.70
2018-04-07T14:37:04.725Z,45.80
2018-04-07T14:39:31.623Z,45.50
2018-04-07T14:41:59.321Z,45.50
2018-04-07T14:44:26.205Z,45.50
2018-04-07T14:46:53.078Z,44.00
2018-04-07T14:49:20.031Z,44.40
2018-04-07T14:51:46.922Z,44.60
2018-04-07T14:54:13.936Z,46.10
2018-04-07T14:56:41.639Z,45.20
2018-04-07T14:59:08.494Z,45.20
2018-04-07T15:01:35.480Z,46.30
2018-04-07T15:04:02.360Z,45.30
2018-04-07T15:09:59.499Z,45.80
2018-04-07T15:12:26.521Z,45.10
2018-04-07T15:14:53.384Z,46.40
2018-04-07T15:17:20.339Z,46.60
2018-04-07T15:19:48.039Z,46.30
2018-04-07T15:22:15.014Z,46.30
2018-04-07T15:24:41.986Z,45.70
2018-04-07T15:27:08.875Z,46.20
2018-04-07T15:29:35.831Z,45.10
2018-04-07T15:32:02.784Z,45.20
2018-04-07T15:34:29.643Z,45.20
2018-04-07T15:36:56.609Z,45.40
2018-04-07T15:39:23.566Z,46.00
2018-04-07T15:41:50.417Z,45.50
2018-04-07T15:44:18.413Z,45.40
2018-04-07T15:46:45.601Z,45.30
2018-04-07T15:49:12.781Z,45.90
2018-04-07T15:51:39.905Z,45.00
2018-04-07T15:54:07.130Z,45.00
2018-04-07T15:56:35.118Z,45.70
2018-04-07T15:59:02.429Z,45.60
2018-04-07T16:01:30.703Z,46.20
2018-04-07T16:03:58.447Z,45.70
2018-04-07T16:06:40.671Z,45.70
2018-04-07T16:09:17.525Z,45.60
2018-04-07T16:11:53.344Z,45.50
2018-04-07T16:14:35.288Z,45.90
2018-04-07T16:17:16.897Z,46.10
2018-04-07T16:19:59.787Z,45.40
2018-04-07T16:22:41.579Z,45.80
2018-04-07T16:25:23.396Z,45.40
2018-04-07T16:28:01.968Z,44.30
2018-04-07T16:30:40.094Z,44.10
2018-04-07T16:33:09.889Z,45.00
2018-04-07T16:35:44.200Z,44.60
2018-04-07T16:38:13.920Z,44.00
2018-04-07T16:40:48.394Z,44.00
2018-04-07T16:43:22.079Z,43.50
2018-04-07T16:45:55.903Z,43.80
2018-04-07T16:48:31.864Z,44.40
2018-04-07T16:51:01.547Z,44.70
2018-04-07T16:53:29.767Z,43.60
2018-04-07T16:55:57.966Z,44.20
2018-04-07T16:58:25.296Z,43.70
2018-04-07T17:00:52.432Z,44.00
2018-04-07T17:03:20.332Z,43.40
2018-04-07T17:05:47.598Z,43.40
2018-04-07T17:08:14.688Z,43.10
2018-04-07T17:10:41.837Z,43.80
2018-04-07T17:13:09.020Z,44.20
2018-04-07T17:15:36.212Z,44.00
2018-04-07T17:18:03.317Z,44.00
2018-04-07T17:20:30.538Z,44.70
2018-04-07T17:22:57.583Z,44.90
2018-04-07T17:25:24.884Z,44.90
2018-04-07T17:27:52.125Z,44.10
2018-04-07T17:30:19.396Z,44.20
2018-04-07T17:32:46.598Z,44.50
2018-04-07T17:35:14.403Z,44.80
2018-04-07T17:37:41.658Z,45.30
2018-04-07T17:40:08.563Z,44.70
2018-04-07T17:42:35.496Z,44.50
2018-04-07T17:45:02.362Z,45.20
2018-04-07T17:47:29.296Z,45.20
2018-04-07T17:49:56.214Z,45.60
2018-04-07T17:52:23.156Z,45.20
2018-04-07T17:54:50.004Z,45.60
2018-04-07T17:57:16.879Z,45.50
2018-04-07T17:59:43.807Z,45.80
2018-04-07T18:02:10.778Z,45.90
2018-04-07T18:04:37.656Z,45.40
2018-04-07T18:07:04.621Z,45.90
2018-04-07T18:09:31.483Z,45.50
2018-04-07T18:11:58.550Z,46.10
2018-04-07T18:14:25.466Z,45.40
2018-04-07T18:16:52.413Z,45.70
2018-04-07T18:19:19.383Z,46.00
2018-04-07T18:21:46.315Z,46.00
2018-04-07T18:24:13.251Z,45.60
2018-04-07T18:26:40.111Z,46.00
2018-04-07T18:29:07.024Z,46.60
2018-04-07T18:31:34.721Z,47.70
2018-04-07T18:34:01.608Z,47.70
2018-04-07T18:36:28.529Z,47.70
2018-04-07T18:38:55.479Z,47.80
2018-04-07T18:41:22.341Z,47.50
2018-04-07T18:43:49.268Z,47.80
2018-04-07T18:46:16.151Z,47.80
2018-04-07T18:48:43.813Z,47.50
2018-04-07T18:51:11.414Z,47.70
2018-04-07T18:53:38.400Z,47.60
2018-04-07T18:56:05.395Z,48.10
2018-04-07T18:58:32.467Z,48.00
2018-04-07T19:00:59.396Z,48.00
2018-04-07T19:03:26.276Z,48.70
2018-04-07T19:05:53.328Z,48.50
2018-04-07T19:08:20.347Z,48.60
2018-04-07T19:10:47.313Z,49.40
2018-04-07T19:13:14.236Z,48.70
2018-04-07T19:15:41.202Z,48.80
2018-04-07T19:18:20.576Z,48.80
2018-04-07T19:20:49.275Z,48.60
2018-04-07T19:23:16.871Z,48.70
2018-04-07T19:25:43.804Z,48.60
2018-04-07T19:28:10.716Z,48.90
2018-04-07T19:30:38.431Z,49.10
2018-04-07T19:33:05.367Z,49.10
2018-04-07T19:35:32.344Z,49.80
2018-04-07T19:37:59.337Z,48.40
2018-04-07T19:40:26.188Z,48.30
2018-04-07T19:42:53.181Z,47.70
2018-04-07T19:45:20.046Z,48.30
2018-04-07T19:47:47.000Z,47.70
2018-04-07T19:50:14.607Z,48.20
2018-04-07T19:52:45.968Z,48.20
2018-04-07T19:55:27.865Z,48.80
2018-04-07T19:58:07.679Z,49.30
2018-04-07T20:00:47.227Z,49.40
2018-04-07T20:03:27.481Z,49.60
2018-04-07T20:06:09.093Z,50.10
2018-04-07T20:08:50.052Z,50.30
2018-04-07T20:11:24.680Z,50.50
2018-04-07T20:14:06.728Z,50.60
2018-04-07T20:16:34.600Z,50.80
2018-04-07T20:19:01.605Z,50.60
2018-04-07T20:21:28.540Z,50.90
2018-04-07T20:23:55.460Z,51.10
2018-04-07T20:26:22.436Z,51.00
2018-04-07T20:28:49.714Z,51.80
2018-04-07T20:31:18.014Z,51.30
2018-04-07T20:33:45.727Z,51.30
2018-04-07T20:36:12.616Z,51.40
2018-04-07T20:38:40.092Z,51.60
2018-04-07T20:41:07.176Z,52.20
2018-04-07T20:43:34.038Z,53.50
2018-04-07T20:46:00.980Z,54.00
2018-04-07T20:48:27.862Z,54.10
2018-04-07T20:50:54.739Z,54.40
2018-04-07T20:53:22.406Z,53.80
2018-04-07T20:55:49.278Z,53.80
2018-04-07T20:58:16.222Z,53.70
2018-04-07T21:00:43.083Z,54.20
2018-04-07T21:03:19.299Z,54.50
2018-04-07T21:05:48.961Z,54.60
2018-04-07T21:08:17.900Z,54.70
2018-04-07T21:10:45.031Z,54.90
2018-04-07T21:13:11.942Z,56.10
2018-04-07T21:15:39.676Z,55.20
2018-04-07T21:18:06.613Z,56.20
2018-04-07T21:20:33.499Z,56.20
2018-04-07T21:23:00.404Z,55.90
2018-04-07T21:25:27.350Z,55.90
2018-04-07T21:27:55.238Z,55.80
2018-04-07T21:30:23.720Z,55.30
2018-04-07T21:32:51.927Z,54.30
2018-04-07T21:35:19.888Z,53.80
2018-04-07T21:37:46.963Z,53.50
2018-04-07T21:40:14.162Z,53.20
2018-04-07T21:42:41.230Z,52.60
2018-04-07T21:45:08.275Z,52.30
2018-04-07T21:47:35.156Z,52.30
2018-04-07T21:50:02.106Z,52.40
2018-04-07T21:52:29.150Z,52.50
2018-04-07T21:54:56.219Z,52.70
2018-04-07T21:57:23.240Z,53.20
2018-04-07T21:59:51.722Z,53.60
2018-04-07T22:02:19.930Z,53.90
2018-04-07T22:04:48.218Z,53.90
2018-04-07T22:07:16.553Z,54.20
2018-04-07T22:09:43.631Z,54.40
2018-04-07T22:12:10.647Z,54.90
2018-04-07T22:14:37.565Z,54.70
2018-04-07T22:17:04.486Z,55.10
2018-04-07T22:19:31.481Z,55.00
2018-04-07T22:21:58.372Z,54.80
2018-04-07T22:24:25.436Z,54.90
2018-04-07T22:26:52.272Z,55.10
2018-04-07T22:29:19.935Z,55.70
2018-04-07T22:31:47.601Z,56.00
2018-04-07T22:34:14.540Z,56.00
2018-04-07T22:36:42.151Z,56.50
2018-04-07T22:39:09.082Z,56.50
2018-04-07T22:41:36.072Z,56.40
2018-04-07T22:44:02.990Z,56.50
2018-04-07T22:46:29.927Z,57.00
2018-04-07T22:48:56.828Z,56.90
2018-04-07T22:51:24.507Z,57.20
2018-04-07T22:53:51.438Z,57.20
2018-04-07T22:56:19.030Z,57.20
2018-04-07T22:58:45.972Z,57.10
2018-04-07T23:01:12.907Z,57.30
2018-04-07T23:03:39.837Z,57.30
2018-04-07T23:06:07.441Z,57.60
2018-04-07T23:08:34.365Z,57.50
2018-04-07T23:11:01.222Z,57.80
2018-04-07T23:13:28.147Z,57.80
2018-04-07T23:15:55.070Z,58.20
2018-04-07T23:18:21.935Z,58.20
2018-04-07T23:20:49.586Z,58.60
2018-04-07T23:23:16.510Z,58.80
2018-04-07T23:25:57.449Z,58.80
2018-04-07T23:28:24.556Z,58.50
2018-04-07T23:30:51.416Z,58.50
2018-04-07T23:33:18.404Z,59.10
2018-04-07T23:35:45.260Z,59.40
2018-04-07T23:38:12.178Z,58.60
2018-04-07T23:40:39.035Z,59.10
2018-04-07T23:43:05.954Z,59.60
2018-04-07T23:45:32.870Z,58.70
2018-04-07T23:47:59.885Z,58.90
2018-04-07T23:50:26.821Z,59.40
2018-04-07T23:52:53.811Z,59.10
2018-04-07T23:55:21.512Z,59.50
2018-04-07T23:57:48.403Z,59.40
